Time;durP1;ratioP1;P1;durP2;ratioP2;P2;SDS_P1;SDS_P2;PMS_P1;PMS_P2;Temp;Humidity;BMP_temperature;BMP_pressure;BME280_temperature;BME280_humidity;BME280_pressure;Samples;Min_cycle;Max_cycle;Signal;HPM_P1;HPM_P2
2023/12/28 00:01:24;;;;;;;5.32;2.70;;;;;;;2.84;63.75;93177.44;2058389;69;20583;-81
2023/12/28 00:03:50;;;;;;;4.50;2.30;;;;;;;2.82;63.85;93180.06;2064578;69;20155;-81
2023/12/28 00:06:16;;;;;;;3.72;2.22;;;;;;;2.80;64.09;93178.56;2064924;69;20684;-84
2023/12/28 00:08:42;;;;;;;7.97;2.80;;;;;;;2.87;63.97;93173.59;2064865;69;20232;-84
2023/12/28 00:11:07;;;;;;;4.35;2.22;;;;;;;2.83;64.13;93189.88;2065120;69;20679;-83
2023/12/28 00:13:33;;;;;;;5.40;2.17;;;;;;;2.71;64.71;93181.13;2065214;69;20196;-83
2023/12/28 00:15:59;;;;;;;3.70;2.15;;;;;;;2.88;64.23;93188.97;2062034;69;20168;-82
2023/12/28 00:18:25;;;;;;;4.43;2.60;;;;;;;2.86;64.20;93180.44;2061879;69;20149;-81
2023/12/28 00:20:51;;;;;;;6.35;2.53;;;;;;;2.82;63.51;93180.78;2065101;69;20497;-79
2023/12/28 00:23:17;;;;;;;6.45;2.50;;;;;;;2.82;63.81;93186.34;2065091;69;20153;-82
2023/12/28 00:25:43;;;;;;;5.88;2.10;;;;;;;2.77;63.97;93179.66;2065307;69;20509;-82
2023/12/28 00:28:08;;;;;;;3.65;2.08;;;;;;;2.68;65.24;93191.28;2065185;69;20595;-81
2023/12/28 00:30:34;;;;;;;4.53;2.35;;;;;;;2.60;65.18;93179.38;2061681;69;20682;-78
2023/12/28 00:33:00;;;;;;;3.45;2.05;;;;;;;2.39;65.22;93187.78;2061293;69;20260;-80
2023/12/28 00:35:26;;;;;;;4.22;2.50;;;;;;;2.44;65.12;93186.16;2061189;69;20184;-81
2023/12/28 00:37:51;;;;;;;3.80;2.03;;;;;;;2.65;65.21;93197.94;2061796;69;20231;-82
2023/12/28 00:40:17;;;;;;;5.30;2.40;;;;;;;2.44;66.00;93198.00;2063020;69;20144;-83
2023/12/28 00:42:43;;;;;;;4.22;2.33;;;;;;;2.68;65.16;93196.84;2061725;69;20583;-82
2023/12/28 00:45:09;;;;;;;3.33;2.00;;;;;;;2.61;65.83;93200.34;2065124;69;20642;-81
2023/12/28 00:47:35;;;;;;;4.03;2.03;;;;;;;2.48;65.74;93181.00;2061640;69;20712;-82
2023/12/28 00:50:01;;;;;;;3.05;1.48;;;;;;;2.83;65.07;93184.31;2064589;69;20218;-83
2023/12/28 00:52:27;;;;;;;3.03;1.90;;;;;;;3.08;63.58;93201.31;2064855;69;20531;-83
2023/12/28 00:54:52;;;;;;;4.43;2.30;;;;;;;2.87;63.65;93199.34;2058053;69;20244;-83
2023/12/28 00:57:20;;;;;;;4.50;2.35;;;;;;;2.73;63.55;93197.97;2058671;69;20165;-83
2023/12/28 00:59:49;;;;;;;8.55;2.45;;;;;;;2.76;64.29;93196.91;2061303;69;20240;-82
2023/12/28 01:02:15;;;;;;;5.80;2.40;;;;;;;2.86;63.98;93197.88;2061586;69;20523;-81
2023/12/28 01:04:41;;;;;;;3.58;2.20;;;;;;;2.80;63.72;93195.25;2064713;69;20148;-82
2023/12/28 01:07:10;;;;;;;3.22;1.90;;;;;;;2.85;64.23;93206.78;2061723;69;20167;-82
2023/12/28 01:09:46;;;;;;;3.67;2.00;;;;;;;2.66;64.25;93190.38;2064513;69;20168;-82
2023/12/28 01:12:12;;;;;;;3.83;1.77;;;;;;;2.65;64.94;93200.72;2059999;69;20255;-82
2023/12/28 01:14:40;;;;;;;3.78;1.73;;;;;;;2.49;65.99;93196.38;2063714;69;20171;-81
2023/12/28 01:17:09;;;;;;;2.95;1.60;;;;;;;2.66;64.58;93182.03;2063358;69;20201;-84
2023/12/28 01:19:45;;;;;;;2.75;1.70;;;;;;;2.48;65.61;93190.06;2063512;69;20168;-81
2023/12/28 01:22:17;;;;;;;3.67;1.92;;;;;;;2.69;64.88;93192.03;2060318;69;20250;-84
2023/12/28 01:24:54;;;;;;;2.95;1.75;;;;;;;2.45;64.41;93193.94;2056356;69;20237;-83
2023/12/28 01:27:29;;;;;;;4.25;2.33;;;;;;;2.46;65.04;93200.22;2063501;69;20188;-84
2023/12/28 01:29:57;;;;;;;5.25;2.20;;;;;;;2.36;65.74;93205.53;2063494;69;21578;-82
2023/12/28 01:32:24;;;;;;;4.20;2.00;;;;;;;2.47;65.36;93204.50;2063713;69;20200;-83
2023/12/28 01:34:51;;;;;;;4.93;2.38;;;;;;;2.47;65.26;93207.28;2063293;69;20212;-82
2023/12/28 01:37:18;;;;;;;5.32;2.20;;;;;;;2.44;64.76;93202.81;2063462;69;20177;-82
2023/12/28 01:39:45;;;;;;;3.97;2.25;;;;;;;2.34;65.63;93210.91;2057758;69;20141;-82
2023/12/28 01:42:14;;;;;;;4.28;2.10;;;;;;;2.34;65.68;93193.47;2063570;69;20234;-82
2023/12/28 01:44:42;;;;;;;3.15;2.10;;;;;;;2.35;65.24;93203.31;2063638;69;21278;-82
2023/12/28 01:47:12;;;;;;;2.80;1.77;;;;;;;2.20;65.33;93190.03;2063595;69;20248;-83
2023/12/28 01:49:43;;;;;;;3.00;2.08;;;;;;;2.31;65.73;93195.31;2063492;69;20610;-82
2023/12/28 01:52:09;;;;;;;4.82;2.28;;;;;;;2.49;64.97;93197.13;2063060;69;20185;-82
2023/12/28 01:54:37;;;;;;;3.45;1.80;;;;;;;2.59;65.05;93182.72;2059640;69;20189;-83
2023/12/28 01:57:06;;;;;;;3.05;1.90;;;;;;;2.82;63.89;93196.75;2063507;69;20144;-83
2023/12/28 01:59:37;;;;;;;3.65;1.73;;;;;;;2.79;63.83;93185.44;2063418;69;20164;-82
2023/12/28 02:02:03;;;;;;;3.45;1.60;;;;;;;2.85;62.79;93195.66;2059973;69;20196;-83
2023/12/28 02:04:29;;;;;;;4.25;1.75;;;;;;;2.97;63.15;93188.44;2059852;69;20159;-83
2023/12/28 02:06:57;;;;;;;2.20;1.38;;;;;;;3.00;63.09;93190.88;2063600;69;20145;-82
2023/12/28 02:09:25;;;;;;;1.63;1.23;;;;;;;2.99;63.69;93185.88;2057212;69;20193;-83
2023/12/28 02:11:52;;;;;;;2.53;1.35;;;;;;;2.99;63.26;93194.97;2063507;69;20379;-82
2023/12/28 02:14:23;;;;;;;4.03;1.80;;;;;;;2.91;64.14;93190.66;2060444;69;20152;-81
2023/12/28 02:17:03;;;;;;;2.38;1.67;;;;;;;2.65;64.10;93203.50;2063854;69;20220;-84
2023/12/28 02:19:49;;;;;;;5.65;2.30;;;;;;;2.81;64.03;93201.56;2060388;69;20193;-84
2023/12/28 02:22:16;;;;;;;5.80;2.05;;;;;;;2.65;64.25;93205.53;2059802;69;20153;-82
2023/12/28 02:25:00;;;;;;;4.60;2.30;;;;;;;2.45;64.48;93196.72;2063038;69;20200;-83
2023/12/28 02:27:27;;;;;;;4.18;2.03;;;;;;;2.49;65.13;93199.16;2063688;69;20217;-83
2023/12/28 02:29:56;;;;;;;3.90;1.80;;;;;;;2.50;65.21;93195.06;2063271;69;20151;-83
2023/12/28 02:32:58;;;;;;;4.07;2.15;;;;;;;2.51;64.93;93199.34;2059542;69;20240;-82
2023/12/28 02:35:33;;;;;;;4.60;2.00;;;;;;;2.52;64.68;93206.38;2060014;69;20167;-81
2023/12/28 02:38:11;;;;;;;4.30;2.17;;;;;;;2.31;65.48;93200.88;2059933;69;20291;-82
2023/12/28 02:40:46;;;;;;;4.60;2.00;;;;;;;2.51;64.97;93197.28;2063320;69;20144;-83
2023/12/28 02:43:15;;;;;;;4.18;2.10;;;;;;;2.16;65.09;93175.78;2063195;69;20211;-83
2023/12/28 02:45:41;;;;;;;3.42;1.60;;;;;;;2.38;65.17;93171.66;2060011;69;20149;-81
2023/12/28 02:48:07;;;;;;;3.95;2.03;;;;;;;2.14;66.48;93170.75;2059735;69;20207;-82
2023/12/28 02:50:34;;;;;;;2.67;1.50;;;;;;;2.09;66.39;93173.69;2063213;69;20215;-83
2023/12/28 02:53:01;;;;;;;3.20;1.83;;;;;;;2.25;66.24;93181.59;2060085;69;20183;-82
2023/12/28 02:55:27;;;;;;;4.82;2.00;;;;;;;2.02;66.79;93177.91;2063611;69;20243;-82
2023/12/28 02:57:56;;;;;;;4.22;2.20;;;;;;;2.04;66.59;93191.97;2063550;69;20635;-82
2023/12/28 03:00:31;;;;;;;2.67;1.70;;;;;;;2.04;65.81;93191.97;2063704;69;20240;-83
2023/12/28 03:02:57;;;;;;;2.92;1.95;;;;;;;2.12;65.58;93198.34;2062752;69;20288;-82
2023/12/28 03:05:22;;;;;;;3.25;1.60;;;;;;;1.89;66.52;93189.09;2060155;69;20179;-82
2023/12/28 03:07:48;;;;;;;3.60;1.63;;;;;;;1.89;67.12;93192.59;2060119;69;20187;-82
2023/12/28 03:10:14;;;;;;;3.00;1.70;;;;;;;1.65;67.40;93193.69;2063430;69;20184;-83
2023/12/28 03:12:40;;;;;;;4.50;1.98;;;;;;;1.89;66.88;93189.09;2063525;69;20270;-83
2023/12/28 03:15:06;;;;;;;3.05;1.80;;;;;;;1.91;67.09;93186.50;2059939;69;20181;-82
2023/12/28 03:17:32;;;;;;;3.13;1.70;;;;;;;1.64;67.60;93189.41;2063198;69;20147;-82
2023/12/28 03:20:01;;;;;;;2.80;1.60;;;;;;;1.65;67.13;93181.81;2062958;69;20209;-82
2023/12/28 03:22:27;;;;;;;3.15;1.60;;;;;;;1.76;67.50;93185.09;2063128;69;20208;-82
2023/12/28 03:24:53;;;;;;;2.50;1.52;;;;;;;1.89;67.59;93198.16;2059684;69;20308;-81
2023/12/28 03:27:22;;;;;;;2.47;1.70;;;;;;;1.84;67.65;93203.84;2063291;69;20159;-82
2023/12/28 03:29:48;;;;;;;5.30;1.73;;;;;;;1.89;67.19;93200.19;2063139;69;20153;-81
2023/12/28 03:32:14;;;;;;;4.13;1.83;;;;;;;1.96;66.74;93205.06;2060159;69;20145;-82
2023/12/28 03:34:39;;;;;;;2.08;1.60;;;;;;;2.04;66.54;93195.50;2061268;69;20219;-82
2023/12/28 03:37:05;;;;;;;3.72;1.55;;;;;;;1.96;67.24;93202.28;2063333;69;20187;-82
2023/12/28 03:39:31;;;;;;;3.45;1.42;;;;;;;2.22;66.16;93199.34;2063157;69;20239;-82
2023/12/28 03:41:56;;;;;;;3.55;1.30;;;;;;;2.38;65.07;93197.41;2063201;69;20160;-82
2023/12/28 03:44:22;;;;;;;2.95;1.65;;;;;;;2.39;64.72;93203.72;2063132;69;20161;-81
2023/12/28 03:46:49;;;;;;;3.38;1.85;;;;;;;2.40;64.55;93202.44;2060014;69;20152;-82
2023/12/28 03:49:19;;;;;;;2.00;1.50;;;;;;;2.37;63.81;93193.13;2063338;69;20564;-82
2023/12/28 03:51:49;;;;;;;1.40;1.00;;;;;;;2.41;64.61;93204.66;2063836;69;20160;-82
2023/12/28 03:54:19;;;;;;;3.20;0.85;;;;;;;2.48;65.52;93194.88;2058579;69;20157;-82
2023/12/28 03:56:51;;;;;;;2.90;1.80;;;;;;;2.22;65.43;93195.81;2063895;69;20153;-83
2023/12/28 03:59:17;;;;;;;1.67;1.08;;;;;;;2.43;64.97;93184.63;2063678;69;20303;-83
2023/12/28 04:01:48;;;;;;;1.73;1.20;;;;;;;2.41;64.75;93173.34;2060552;69;20177;-83
2023/12/28 04:04:16;;;;;;;1.33;1.10;;;;;;;2.18;66.39;93176.72;2059885;69;20173;-82
2023/12/28 04:06:43;;;;;;;2.35;1.40;;;;;;;2.20;65.47;93174.16;2063708;69;20266;-82
2023/12/28 04:09:12;;;;;;;2.20;1.60;;;;;;;2.49;63.94;93169.31;2063730;69;20157;-84
2023/12/28 04:11:54;;;;;;;2.25;0.90;;;;;;;2.57;64.01;93163.81;2064039;69;20148;-82
2023/12/28 04:14:28;;;;;;;2.55;1.10;;;;;;;2.71;63.52;93176.31;2059527;69;20251;-82
2023/12/28 04:16:54;;;;;;;1.83;1.20;;;;;;;2.66;63.86;93193.88;2063027;69;20192;-81
2023/12/28 04:19:20;;;;;;;2.25;1.15;;;;;;;2.60;63.50;93192.53;2059720;69;20184;-81
2023/12/28 04:21:46;;;;;;;2.50;1.45;;;;;;;2.72;63.04;93191.69;2063263;69;20192;-82
2023/12/28 04:24:11;;;;;;;3.95;1.30;;;;;;;2.72;63.38;93188.16;2056081;69;20181;-82
2023/12/28 04:26:38;;;;;;;2.85;1.65;;;;;;;2.65;64.38;93186.06;2060285;69;20196;-83
2023/12/28 04:29:04;;;;;;;2.58;1.42;;;;;;;2.76;63.51;93194.13;2060074;69;20215;-83
2023/12/28 04:31:29;;;;;;;2.58;1.30;;;;;;;2.88;62.71;93200.09;2060148;69;20568;-81
2023/12/28 04:33:56;;;;;;;2.72;1.60;;;;;;;2.80;62.33;93197.28;2063511;69;20652;-82
2023/12/28 04:37:07;;;;;;;3.45;1.80;;;;;;;2.86;61.47;93197.88;2058613;69;20516;-82
2023/12/28 04:39:32;;;;;;;3.03;1.67;;;;;;;2.82;61.95;93196.75;2056671;69;20181;-82
2023/12/28 04:41:58;;;;;;;3.15;1.67;;;;;;;2.84;61.97;93183.00;2058474;69;20160;-82
2023/12/28 04:44:23;;;;;;;2.50;1.30;;;;;;;2.98;62.35;93206.66;2056731;69;20161;-82
2023/12/28 04:46:49;;;;;;;3.00;1.38;;;;;;;2.95;62.35;93202.91;2057025;69;20652;-82
2023/12/28 04:49:15;;;;;;;3.50;1.90;;;;;;;2.72;62.64;93207.63;2059919;69;20935;-82
2023/12/28 04:51:44;;;;;;;4.10;2.10;;;;;;;2.82;62.60;93197.47;2058376;69;20197;-83
2023/12/28 04:54:10;;;;;;;3.83;2.05;;;;;;;2.73;63.09;93198.72;2055457;69;20239;-82
2023/12/28 04:56:35;;;;;;;7.97;2.00;;;;;;;2.68;63.21;93194.06;2057158;69;20979;-82
2023/12/28 04:59:01;;;;;;;3.42;1.48;;;;;;;2.35;64.21;93192.94;2060015;69;20200;-82
2023/12/28 05:01:31;;;;;;;1.83;1.20;;;;;;;2.54;64.28;93192.69;2055532;69;20631;-82
2023/12/28 05:03:57;;;;;;;5.53;1.20;;;;;;;2.71;62.17;93200.59;2054442;69;20571;-82
2023/12/28 05:06:22;;;;;;;1.88;1.30;;;;;;;2.86;61.40;93195.09;2059827;69;20157;-81
2023/12/28 05:08:48;;;;;;;3.97;2.50;;;;;;;2.97;61.38;93197.53;2057107;69;20227;-82
2023/12/28 05:11:13;;;;;;;7.82;4.95;;;;;;;2.97;60.92;93194.75;2056789;69;20215;-82
2023/12/28 05:13:39;;;;;;;3.42;1.92;;;;;;;2.97;61.34;93202.34;2056695;69;20249;-83
2023/12/28 05:16:06;;;;;;;1.92;1.70;;;;;;;2.88;61.45;93188.97;2060653;69;20141;-83
2023/12/28 05:18:31;;;;;;;2.92;2.00;;;;;;;2.81;61.94;93209.91;2060185;69;20307;-82
2023/12/28 05:20:57;;;;;;;3.03;1.80;;;;;;;2.86;62.42;93205.47;2060446;69;20184;-83
2023/12/28 05:23:22;;;;;;;3.20;2.13;;;;;;;2.78;62.59;93208.94;2060166;69;20160;-83
2023/12/28 05:25:48;;;;;;;2.35;1.25;;;;;;;2.80;63.11;93222.31;2057091;69;20723;-82
2023/12/28 05:28:14;;;;;;;3.33;1.80;;;;;;;2.55;63.64;93219.94;2060314;69;21522;-83
2023/12/28 05:30:39;;;;;;;2.92;1.88;;;;;;;2.42;63.85;93208.16;2059905;69;20197;-82
2023/12/28 05:33:05;;;;;;;4.88;2.00;;;;;;;2.40;63.95;93213.53;2059177;69;20169;-82
2023/12/28 05:35:39;;;;;;;2.90;1.73;;;;;;;2.35;64.66;93209.63;2060541;69;20150;-83
2023/12/28 05:38:05;;;;;;;2.38;1.42;;;;;;;2.35;64.27;93211.66;2059488;69;20215;-82
2023/12/28 05:40:30;;;;;;;3.58;1.65;;;;;;;2.17;64.93;93216.91;2060426;69;20157;-82
2023/12/28 05:42:56;;;;;;;2.55;1.60;;;;;;;2.33;64.23;93219.78;2060409;69;20153;-83
2023/12/28 05:45:21;;;;;;;2.40;1.50;;;;;;;2.15;65.11;93204.81;2056769;69;20167;-83
2023/12/28 05:47:47;;;;;;;4.10;2.05;;;;;;;2.13;64.76;93222.03;2059900;69;20150;-82
2023/12/28 05:50:13;;;;;;;3.22;2.15;;;;;;;2.15;65.13;93215.94;2059051;69;20199;-82
2023/12/28 05:52:38;;;;;;;16.98;7.65;;;;;;;2.12;65.28;93222.59;2059560;69;20160;-82
2023/12/28 05:55:06;;;;;;;32.88;13.98;;;;;;;2.22;65.25;93229.91;2059639;69;20256;-82
2023/12/28 05:57:32;;;;;;;19.65;8.38;;;;;;;2.17;64.49;93239.13;2056113;69;20645;-82
2023/12/28 05:59:58;;;;;;;16.40;8.10;;;;;;;2.17;64.82;93246.72;2059118;69;20214;-83
2023/12/28 06:02:23;;;;;;;9.30;3.92;;;;;;;2.16;64.67;93248.75;2059705;69;20146;-82
2023/12/28 06:04:49;;;;;;;11.55;5.45;;;;;;;1.69;65.55;93243.28;2059786;69;20528;-83
2023/12/28 06:07:15;;;;;;;12.93;6.22;;;;;;;1.79;65.73;93241.56;2055932;69;20153;-82
2023/12/28 06:09:41;;;;;;;10.30;4.00;;;;;;;1.85;65.51;93244.22;2059469;69;20227;-82
2023/12/28 06:12:07;;;;;;;5.35;3.47;;;;;;;1.62;66.95;93239.19;2059159;69;20161;-81
2023/12/28 06:14:32;;;;;;;6.30;3.28;;;;;;;1.70;66.41;93233.72;2059355;69;20193;-81
2023/12/28 06:16:58;;;;;;;5.30;3.17;;;;;;;1.53;66.54;93234.81;2059596;69;20149;-80
2023/12/28 06:19:24;;;;;;;9.65;3.70;;;;;;;1.48;66.93;93230.16;2059024;69;20598;-81
2023/12/28 06:21:50;;;;;;;8.38;4.65;;;;;;;1.58;66.57;93241.53;2059388;69;20231;-81
2023/12/28 06:24:16;;;;;;;6.20;4.10;;;;;;;1.65;67.07;93246.44;2056744;69;20201;-83
2023/12/28 06:26:42;;;;;;;6.38;3.95;;;;;;;1.41;67.91;93232.84;2058296;69;20153;-83
2023/12/28 06:29:09;;;;;;;7.57;4.07;;;;;;;1.51;67.13;93237.41;2058394;69;20153;-83
2023/12/28 06:31:36;;;;;;;9.35;5.68;;;;;;;1.29;67.48;93229.59;2058864;69;20200;-83
2023/12/28 06:34:10;;;;;;;41.22;16.05;;;;;;;1.42;67.17;93237.88;2058578;69;20149;-83
2023/12/28 06:36:36;;;;;;;221.40;62.13;;;;;;;1.35;67.31;93237.78;2059169;69;20177;-83
2023/12/28 06:39:02;;;;;;;63.42;22.42;;;;;;;1.45;67.08;93233.25;2059884;69;20248;-83
2023/12/28 06:41:27;;;;;;;102.63;34.03;;;;;;;1.41;67.17;93230.06;2059280;69;20200;-83
2023/12/28 06:43:53;;;;;;;111.65;34.30;;;;;;;1.19;67.72;93232.06;2059735;69;20252;-82
2023/12/28 06:46:20;;;;;;;52.35;19.40;;;;;;;1.53;67.20;93226.50;2059718;69;20243;-83
2023/12/28 06:48:46;;;;;;;76.57;39.67;;;;;;;1.37;68.54;93235.19;2059145;69;20199;-83
2023/12/28 06:51:20;;;;;;;102.57;44.85;;;;;;;1.23;68.55;93235.22;2059594;69;20188;-81
2023/12/28 06:53:46;;;;;;;50.50;21.35;;;;;;;0.84;70.33;93244.38;2060130;69;20268;-82
2023/12/28 06:56:12;;;;;;;34.33;15.25;;;;;;;1.14;68.51;93234.94;2058318;69;20141;-81
2023/12/28 06:58:37;;;;;;;36.03;15.52;;;;;;;1.22;68.51;93247.63;2055559;69;20150;-81
2023/12/28 07:01:04;;;;;;;42.08;19.75;;;;;;;0.94;69.36;93242.66;2061302;69;20176;-82
2023/12/28 07:03:32;;;;;;;45.40;20.05;;;;;;;1.21;68.39;93245.38;2061477;69;20541;-80
2023/12/28 07:06:01;;;;;;;34.97;17.90;;;;;;;1.30;68.24;93233.84;2061205;69;20655;-80
2023/12/28 07:08:27;;;;;;;19.52;10.38;;;;;;;1.35;67.75;93243.31;2061529;69;20160;-80
2023/12/28 07:10:52;;;;;;;14.32;8.25;;;;;;;1.46;67.58;93235.47;2061606;69;20149;-82
2023/12/28 07:13:18;;;;;;;22.92;11.27;;;;;;;1.23;68.76;93237.25;2061742;69;20153;-82
2023/12/28 07:15:44;;;;;;;36.17;16.38;;;;;;;1.37;68.04;93238.72;2061746;69;20156;-81
2023/12/28 07:18:10;;;;;;;31.48;14.52;;;;;;;1.36;67.37;93247.59;2065134;69;20759;-81
2023/12/28 07:20:36;;;;;;;23.55;12.15;;;;;;;1.44;67.37;93248.41;2064742;69;20149;-81
2023/12/28 07:23:01;;;;;;;20.65;10.88;;;;;;;1.47;67.29;93259.19;2064911;69;20145;-82
2023/12/28 07:25:27;;;;;;;18.13;9.40;;;;;;;1.49;67.13;93255.88;2061362;69;20284;-81
2023/12/28 07:27:53;;;;;;;13.15;5.95;;;;;;;1.39;68.53;93252.06;2061340;69;20602;-81
2023/12/28 07:30:18;;;;;;;34.67;14.70;;;;;;;1.11;68.69;93247.88;2062971;69;20142;-80
2023/12/28 07:32:45;;;;;;;33.08;13.80;;;;;;;1.27;68.51;93251.53;2061588;69;20236;-81
2023/12/28 07:35:11;;;;;;;26.30;11.95;;;;;;;1.42;68.12;93246.19;2058598;69;20652;-80
2023/12/28 07:37:36;;;;;;;17.83;9.65;;;;;;;1.47;67.54;93250.88;2058282;69;20145;-78
2023/12/28 07:40:04;;;;;;;20.80;9.98;;;;;;;1.46;67.76;93248.63;2060169;69;20156;-81
2023/12/28 07:42:31;;;;;;;19.63;8.90;;;;;;;1.56;67.73;93243.34;2059533;69;20312;-81
2023/12/28 07:44:57;;;;;;;24.60;12.05;;;;;;;1.42;67.62;93250.97;2060869;69;20173;-83
2023/12/28 07:47:22;;;;;;;21.38;10.80;;;;;;;1.36;68.30;93251.09;2059174;69;20180;-83
2023/12/28 07:49:48;;;;;;;29.38;12.07;;;;;;;1.04;69.16;93248.50;2053796;70;20506;-81
2023/12/28 07:52:14;;;;;;;30.70;12.73;;;;;;;1.12;69.25;93246.56;2054097;69;20253;-83
2023/12/28 07:54:39;;;;;;;32.85;14.45;;;;;;;1.35;68.37;93263.47;2054404;69;20162;-80
2023/12/28 07:57:05;;;;;;;23.80;11.18;;;;;;;1.41;68.27;93252.25;2054546;69;20177;-82
2023/12/28 07:59:30;;;;;;;26.52;11.88;;;;;;;1.44;68.30;93257.47;2054461;69;20170;-79
2023/12/28 08:01:56;;;;;;;43.03;21.17;;;;;;;1.04;69.15;93251.28;2054476;69;20149;-80
2023/12/28 08:04:23;;;;;;;32.97;14.82;;;;;;;1.30;68.47;93252.50;2054344;69;20154;-79
2023/12/28 08:06:48;;;;;;;39.95;17.65;;;;;;;0.77;69.47;93256.09;2054479;69;20240;-80
2023/12/28 08:09:14;;;;;;;32.42;14.43;;;;;;;1.16;69.63;93262.91;2054596;69;20529;-80
2023/12/28 08:11:39;;;;;;;27.95;13.38;;;;;;;1.14;69.59;93252.31;2054404;69;20146;-80
2023/12/28 08:14:05;;;;;;;36.38;18.20;;;;;;;1.29;69.24;93253.81;2054501;69;20146;-81
2023/12/28 08:16:31;;;;;;;46.58;23.63;;;;;;;1.45;68.87;93261.00;2054388;69;20225;-81
2023/12/28 08:18:57;;;;;;;44.25;22.27;;;;;;;1.57;68.41;93247.63;2054308;69;20177;-81
2023/12/28 08:21:22;;;;;;;26.45;13.48;;;;;;;1.42;68.57;93250.97;2054421;69;20157;-81
2023/12/28 08:23:48;;;;;;;22.90;11.65;;;;;;;1.62;68.44;93244.72;2054470;69;20146;-80
2023/12/28 08:26:13;;;;;;;20.98;10.38;;;;;;;1.76;68.12;93257.25;2054479;69;20177;-80
2023/12/28 08:28:40;;;;;;;19.67;7.85;;;;;;;1.84;67.78;93253.81;2053912;70;20146;-80
2023/12/28 08:31:08;;;;;;;12.25;5.47;;;;;;;1.90;67.92;93248.88;2054563;69;20145;-80
2023/12/28 08:33:35;;;;;;;9.00;4.53;;;;;;;2.02;68.13;93258.44;2054909;69;20194;-80
2023/12/28 08:36:03;;;;;;;30.98;16.38;;;;;;;2.07;67.88;93259.59;2054945;69;20154;-80
2023/12/28 08:38:29;;;;;;;28.80;14.07;;;;;;;2.06;67.57;93249.75;2054425;70;20150;-80
2023/12/28 08:40:55;;;;;;;22.38;12.68;;;;;;;2.21;67.70;93252.66;2054896;69;20146;-80
2023/12/28 08:43:20;;;;;;;24.88;13.90;;;;;;;2.33;67.04;93250.34;2054909;69;20165;-79
2023/12/28 08:45:46;;;;;;;26.02;12.75;;;;;;;2.13;67.51;93251.84;2054975;69;20157;-80
2023/12/28 08:48:11;;;;;;;21.25;11.88;;;;;;;2.31;67.91;93259.22;2054913;69;20134;-80
2023/12/28 08:50:37;;;;;;;28.92;12.60;;;;;;;2.37;68.24;93262.59;2056446;69;20521;-80
2023/12/28 08:53:03;;;;;;;22.00;10.70;;;;;;;2.60;67.72;93257.22;2058409;69;20161;-80
2023/12/28 08:55:28;;;;;;;22.48;11.23;;;;;;;2.79;66.82;93257.72;2057726;69;20136;-80
2023/12/28 08:57:54;;;;;;;21.80;10.65;;;;;;;3.15;66.13;93259.00;2058192;69;20217;-79
2023/12/28 09:00:19;;;;;;;22.05;10.75;;;;;;;3.51;66.26;93248.59;2058267;69;20157;-80
2023/12/28 09:02:45;;;;;;;22.95;11.32;;;;;;;3.97;67.38;93257.06;2058197;69;20178;-79
2023/12/28 09:05:10;;;;;;;24.77;11.20;;;;;;;4.19;65.84;93255.59;2058028;69;20192;-79
2023/12/28 09:07:42;;;;;;;21.70;11.10;;;;;;;4.68;66.00;93250.97;2058293;69;20154;-79
2023/12/28 09:10:12;;;;;;;19.45;10.85;;;;;;;4.97;64.22;93249.41;2058340;69;20149;-79
2023/12/28 09:12:38;;;;;;;18.77;10.32;;;;;;;5.39;64.05;93246.13;2058209;69;20593;-79
2023/12/28 09:15:05;;;;;;;19.05;10.48;;;;;;;5.76;62.94;93249.31;2058200;69;20148;-79
2023/12/28 09:17:30;;;;;;;28.60;14.32;;;;;;;5.71;62.29;93242.63;2058232;69;20278;-79
2023/12/28 09:19:57;;;;;;;36.65;15.65;;;;;;;5.37;60.94;93240.38;2058212;69;20502;-79
2023/12/28 09:22:23;;;;;;;33.55;16.52;;;;;;;6.00;60.76;93243.09;2058173;69;20157;-79
2023/12/28 09:24:49;;;;;;;42.03;20.92;;;;;;;6.57;60.75;93247.16;2058254;69;20207;-79
2023/12/28 09:27:15;;;;;;;33.65;18.08;;;;;;;7.03;58.87;93249.53;2058258;69;20152;-79
2023/12/28 09:29:41;;;;;;;30.17;17.20;;;;;;;7.00;56.79;93248.63;2058195;69;20248;-80
2023/12/28 09:32:07;;;;;;;23.17;12.18;;;;;;;7.09;57.59;93252.81;2057647;69;20233;-79
2023/12/28 09:34:33;;;;;;;22.15;12.60;;;;;;;7.05;58.14;93250.44;2058000;69;20601;-80
2023/12/28 09:36:58;;;;;;;19.77;11.15;;;;;;;7.12;58.23;93246.09;2058119;69;20559;-79
2023/12/28 09:39:24;;;;;;;21.60;12.32;;;;;;;6.63;57.21;93247.66;2058124;69;20159;-79
2023/12/28 09:41:57;;;;;;;13.50;8.18;;;;;;;6.63;57.58;93242.06;2058005;69;20146;-80
2023/12/28 09:44:24;;;;;;;15.15;8.18;;;;;;;7.00;57.23;93242.28;2058029;69;20236;-80
2023/12/28 09:46:50;;;;;;;14.55;8.70;;;;;;;7.46;56.31;93239.72;2058157;69;20153;-79
2023/12/28 09:49:16;;;;;;;20.75;9.55;;;;;;;7.71;55.69;93236.81;2057641;69;20141;-80
2023/12/28 09:51:41;;;;;;;19.10;9.70;;;;;;;8.03;55.57;93235.84;2061492;69;20132;-80
2023/12/28 09:54:07;;;;;;;16.23;9.45;;;;;;;8.41;54.97;93234.56;2061459;69;20153;-80
2023/12/28 09:56:33;;;;;;;20.70;9.40;;;;;;;8.45;56.39;93239.75;2061522;69;20138;-80
2023/12/28 09:58:59;;;;;;;18.15;9.80;;;;;;;8.50;55.27;93221.91;2061457;69;20160;-79
2023/12/28 10:01:25;;;;;;;12.57;7.38;;;;;;;8.69;54.17;93221.97;2061368;69;20220;-80
2023/12/28 10:03:50;;;;;;;13.68;8.25;;;;;;;8.71;52.88;93224.22;2057976;69;20540;-80
2023/12/28 10:06:16;;;;;;;13.27;6.50;;;;;;;9.04;52.13;93222.50;2061520;69;20207;-80
2023/12/28 10:08:47;;;;;;;9.20;6.13;;;;;;;9.05;51.95;93212.00;2061407;69;20145;-80
2023/12/28 10:11:16;;;;;;;16.45;8.75;;;;;;;9.23;51.65;93224.59;2058050;69;20237;-80
2023/12/28 10:13:43;;;;;;;14.07;7.10;;;;;;;9.20;51.15;93228.56;2061355;69;20142;-80
2023/12/28 10:16:15;;;;;;;11.25;6.18;;;;;;;9.22;50.63;93225.94;2061357;69;20122;-80
2023/12/28 10:18:43;;;;;;;21.67;10.10;;;;;;;9.43;50.99;93216.91;2061253;69;20168;-79
2023/12/28 10:21:10;;;;;;;23.55;12.50;;;;;;;9.53;49.92;93206.41;2061148;69;20233;-80
2023/12/28 10:23:36;;;;;;;20.95;10.60;;;;;;;9.55;49.58;93195.31;2061361;69;20311;-80
2023/12/28 10:26:04;;;;;;;20.17;11.80;;;;;;;9.35;50.60;93188.97;2061354;69;20685;-80
2023/12/28 10:28:34;;;;;;;18.75;10.15;;;;;;;9.59;50.12;93172.38;2061352;69;20145;-80
2023/12/28 10:31:01;;;;;;;15.85;8.40;;;;;;;9.73;49.98;93161.41;2061325;69;20173;-80
2023/12/28 10:33:26;;;;;;;14.75;8.43;;;;;;;10.15;49.66;93146.78;2061359;69;20215;-80
2023/12/28 10:35:55;;;;;;;16.17;7.95;;;;;;;10.22;49.28;93154.31;2061326;69;20578;-80
2023/12/28 10:38:21;;;;;;;16.00;8.90;;;;;;;10.18;49.91;93154.78;2061361;69;20235;-80
2023/12/28 10:40:50;;;;;;;22.23;10.48;;;;;;;9.54;50.41;93146.06;2061426;69;20157;-80
2023/12/28 10:43:17;;;;;;;18.73;10.52;;;;;;;10.12;49.92;93134.63;2061306;69;20180;-80
2023/12/28 10:45:46;;;;;;;15.82;8.82;;;;;;;10.65;48.85;93129.81;2061311;69;20133;-80
2023/12/28 10:48:13;;;;;;;14.75;8.60;;;;;;;10.89;48.67;93130.72;2061200;69;20141;-80
2023/12/28 10:50:46;;;;;;;17.55;8.40;;;;;;;10.58;48.94;93119.50;2057919;69;20165;-80
2023/12/28 10:53:21;;;;;;;12.55;6.13;;;;;;;9.40;49.36;93128.91;2061270;69;20205;-80
2023/12/28 10:56:08;;;;;;;14.77;6.47;;;;;;;9.35;49.14;93129.97;2058060;69;20154;-80
2023/12/28 10:58:49;;;;;;;14.85;7.43;;;;;;;10.57;48.53;93122.91;2061348;69;20236;-81
2023/12/28 11:01:24;;;;;;;11.23;6.10;;;;;;;11.34;47.20;93104.72;2061250;69;20316;-81
2023/12/28 11:04:03;;;;;;;14.15;5.70;;;;;;;11.83;45.63;93102.94;2061182;69;20184;-81
2023/12/28 11:06:30;;;;;;;11.70;6.15;;;;;;;11.61;46.26;93104.31;2061417;69;20517;-81
2023/12/28 11:08:59;;;;;;;10.13;6.35;;;;;;;12.29;45.66;93107.16;2061301;69;20561;-81
2023/12/28 11:11:26;;;;;;;10.43;6.05;;;;;;;12.06;45.26;93098.66;2061370;69;20584;-81
2023/12/28 11:13:54;;;;;;;12.73;6.95;;;;;;;11.69;45.03;93093.56;2061382;69;20500;-80
2023/12/28 11:16:21;;;;;;;19.00;9.70;;;;;;;11.60;45.93;93100.75;2061259;69;20585;-81
2023/12/28 11:18:48;;;;;;;18.73;9.05;;;;;;;11.85;46.20;93105.88;2061110;69;20159;-81
2023/12/28 11:21:14;;;;;;;24.23;11.32;;;;;;;11.46;46.18;93085.78;2061457;69;20149;-81
2023/12/28 11:23:41;;;;;;;19.60;9.77;;;;;;;11.69;46.27;93091.47;2061284;69;20173;-81
2023/12/28 11:26:18;;;;;;;19.08;10.30;;;;;;;11.74;46.75;93083.25;2061264;69;20148;-81
2023/12/28 11:28:44;;;;;;;18.08;10.00;;;;;;;11.41;46.05;93078.41;2061220;69;20623;-81
2023/12/28 11:31:13;;;;;;;14.88;8.70;;;;;;;10.92;47.30;93075.25;2057891;69;20149;-81
2023/12/28 11:33:47;;;;;;;14.82;7.95;;;;;;;10.18;47.65;93067.53;2061100;69;20136;-81
2023/12/28 11:36:26;;;;;;;13.52;7.00;;;;;;;9.90;47.86;93054.38;2057900;69;20263;-81